CheckWX is a tool to help pilots better visualize weather data.  It is not intended as a substitute for an official pre-flight weather briefing.

01:07:03 UTC

KWRL TAF
Worland Municipal Airport
Worland, Wyoming, USA
KWRL 232336Z 2400/2424 21005KT P6SM SCT100 SCT200 FM240700 34007KT P6SM VCSH SCT025 BKN040 FM241800 01006KT P6SM VCSH SCT025 BKN040

Feb-24@
00:00 UTC

Feb-24 @ 00:00 UTC

Feb-24@
07:00 UTC

Feb-24 @ 07:00 UTC

KWRL 232336Z 2400/2424 21005KT P6SM SCT100 SCT200
Wind
  • 210° at 5 KTS
Cloud Levels
  • Scattered at 10,000' AGL
  • Scattered at 20,000' AGL

Feb-24@
07:00 UTC

Feb-24 @ 07:00 UTC

Feb-24@
18:00 UTC

Feb-24 @ 18:00 UTC

FM240700 34007KT P6SM VCSH SCT025 BKN040

From

From Standard forecast or significant change

Wind
  • 340° at 7 KTS
Cloud Levels
  • Scattered at 2,500' AGL
  • Broken at 4,000' AGL

Feb-24@
18:00 UTC

Feb-24 @ 18:00 UTC

Feb-25@
00:00 UTC

Feb-25 @ 00:00 UTC

FM241800 01006KT P6SM VCSH SCT025 BKN040

From

From Standard forecast or significant change

Wind
  • 010° at 6 KTS
Cloud Levels
  • Scattered at 2,500' AGL
  • Broken at 4,000' AGL